createdAt,value
2023-08-12T00:00:14.351Z,88.18
2023-08-12T00:01:14.357Z,88.18
2023-08-12T00:02:14.274Z,88.68
2023-08-12T00:03:14.385Z,88.98
2023-08-12T00:04:14.259Z,88.98
2023-08-12T00:05:14.299Z,89.18
2023-08-12T00:06:14.272Z,89.48
2023-08-12T00:07:14.294Z,89.68
2023-08-12T00:08:14.205Z,90.37
2023-08-12T00:09:14.220Z,90.17
2023-08-12T00:10:14.231Z,90.67
2023-08-12T00:11:14.195Z,91.08
2023-08-12T00:12:14.190Z,92.18
2023-08-12T00:13:14.185Z,92.38
2023-08-12T00:14:14.141Z,92.93
2023-08-12T00:15:14.165Z,94.93
2023-08-12T00:16:14.190Z,95.62
2023-08-12T00:17:14.222Z,94.93
2023-08-12T00:18:14.132Z,95.62
2023-08-12T00:19:14.122Z,96.13
2023-08-12T00:20:14.160Z,97.03
2023-08-12T00:21:14.099Z,96.97
2023-08-12T00:22:14.076Z,98.78
2023-08-12T00:23:14.080Z,98.88
2023-08-12T00:24:14.063Z,99.98
2023-08-12T00:25:14.048Z,99.08
2023-08-12T00:26:14.024Z,99.78
2023-08-12T00:27:14.162Z,99.48
2023-08-12T00:28:14.082Z,99.52
2023-08-12T00:29:14.001Z,99.99
2023-08-12T00:30:14.035Z,99.99
2023-08-12T00:31:14.021Z,99.99
2023-08-12T00:32:13.954Z,99.99
2023-08-12T00:33:13.976Z,99.99
2023-08-12T00:34:13.967Z,99.99
2023-08-12T00:35:13.943Z,99.99
2023-08-12T00:36:13.928Z,99.99
2023-08-12T00:37:14.274Z,99.99
2023-08-12T00:38:13.903Z,99.99
2023-08-12T00:39:13.922Z,99.99
2023-08-12T00:40:13.908Z,99.99
2023-08-12T00:41:13.882Z,99.99
2023-08-12T00:42:13.869Z,99.99
2023-08-12T00:43:13.899Z,99.99
2023-08-12T00:44:13.844Z,99.99
2023-08-12T00:45:13.881Z,99.99
2023-08-12T00:46:13.867Z,99.99
2023-08-12T00:47:14.253Z,99.99
2023-08-12T00:48:14.837Z,99.99
2023-08-12T00:49:13.832Z,99.99
2023-08-12T00:50:13.773Z,99.99
2023-08-12T00:51:13.770Z,99.99
2023-08-12T00:52:13.745Z,99.99
2023-08-12T00:53:13.758Z,99.99
2023-08-12T00:54:13.747Z,99.99
2023-08-12T00:55:13.747Z,99.99
2023-08-12T00:56:13.690Z,99.99
2023-08-12T00:57:13.968Z,99.99
2023-08-12T00:58:13.723Z,99.99
2023-08-12T00:59:13.704Z,99.99
2023-08-12T01:00:13.667Z,99.99
2023-08-12T01:01:13.825Z,99.99
2023-08-12T01:02:13.660Z,99.99
2023-08-12T01:03:13.680Z,99.99
2023-08-12T01:04:13.650Z,99.99
2023-08-12T01:05:13.639Z,99.99
2023-08-12T01:06:13.653Z,99.99
2023-08-12T01:07:13.773Z,99.99
2023-08-12T01:08:13.569Z,99.99
2023-08-12T01:09:13.585Z,99.99
2023-08-12T01:10:13.562Z,99.99
2023-08-12T01:11:13.562Z,99.99
2023-08-12T01:12:13.558Z,99.99
2023-08-12T01:13:13.565Z,99.99
2023-08-12T01:14:13.515Z,99.99
2023-08-12T01:15:13.517Z,99.99
2023-08-12T01:16:13.545Z,99.99
2023-08-12T01:17:13.702Z,99.99
2023-08-12T01:18:13.488Z,99.99
2023-08-12T01:19:13.511Z,99.99
2023-08-12T01:20:13.440Z,99.99
2023-08-12T01:21:13.476Z,99.99
2023-08-12T01:22:13.440Z,99.99
2023-08-12T01:23:13.445Z,99.99
2023-08-12T01:24:13.435Z,99.99
2023-08-12T01:25:13.418Z,99.99
2023-08-12T01:26:13.413Z,99.99
2023-08-12T01:27:13.871Z,99.99
2023-08-12T01:28:13.358Z,99.99
2023-08-12T01:29:13.381Z,99.99
2023-08-12T01:30:13.379Z,99.99
2023-08-12T01:31:13.413Z,99.99
2023-08-12T01:32:13.331Z,99.99
2023-08-12T01:33:13.327Z,99.99
2023-08-12T01:34:13.294Z,99.99
2023-08-12T01:35:13.318Z,99.99
2023-08-12T01:36:13.301Z,99.99
2023-08-12T01:37:13.589Z,99.99
2023-08-12T01:38:13.282Z,99.99
2023-08-12T01:39:13.263Z,99.99
2023-08-12T01:40:13.233Z,99.99
2023-08-12T01:41:13.265Z,99.99
2023-08-12T01:42:13.231Z,99.99
2023-08-12T01:43:13.214Z,99.99
2023-08-12T01:44:13.196Z,99.99
2023-08-12T01:45:13.194Z,99.99
2023-08-12T01:46:13.181Z,99.99
2023-08-12T01:47:13.482Z,99.99
2023-08-12T01:48:13.715Z,99.99
2023-08-12T01:49:13.161Z,99.99
2023-08-12T01:50:13.129Z,99.99
2023-08-12T01:51:13.134Z,99.99
2023-08-12T01:52:13.112Z,99.99
2023-08-12T01:53:13.109Z,99.99
2023-08-12T01:54:13.145Z,99.99
2023-08-12T01:55:13.110Z,99.99
2023-08-12T01:56:13.057Z,99.99
2023-08-12T01:57:13.355Z,99.99
2023-08-12T01:58:13.032Z,99.99
2023-08-12T01:59:13.046Z,99.99
2023-08-12T02:00:13.035Z,99.99
2023-08-12T02:01:13.065Z,99.99
2023-08-12T02:02:13.006Z,99.99
2023-08-12T02:03:13.128Z,99.99
2023-08-12T02:04:12.970Z,99.99
2023-08-12T02:05:12.987Z,99.99
2023-08-12T02:06:12.979Z,99.99
2023-08-12T02:07:13.288Z,99.99
2023-08-12T02:08:12.971Z,99.99
2023-08-12T02:09:12.943Z,99.99
2023-08-12T02:10:12.915Z,99.99
2023-08-12T02:11:12.929Z,99.99
2023-08-12T02:12:12.942Z,99.99
2023-08-12T02:13:12.879Z,99.99
2023-08-12T02:14:12.883Z,99.99
2023-08-12T02:15:12.888Z,99.99
2023-08-12T02:16:12.870Z,99.99
2023-08-12T02:17:13.232Z,99.99
2023-08-12T02:18:12.852Z,99.99
2023-08-12T02:19:13.345Z,99.99
2023-08-12T02:20:12.835Z,99.99
2023-08-12T02:21:12.818Z,99.99
2023-08-12T02:22:12.785Z,99.99
2023-08-12T02:23:12.820Z,99.99
2023-08-12T02:24:12.800Z,99.99
2023-08-12T02:25:12.805Z,99.99
2023-08-12T02:26:12.759Z,99.99
2023-08-12T02:27:13.041Z,99.99
2023-08-12T02:28:12.722Z,99.99
2023-08-12T02:29:12.748Z,99.99
2023-08-12T02:30:12.736Z,99.99
2023-08-12T02:31:12.728Z,99.99
2023-08-12T02:32:12.700Z,99.99
2023-08-12T02:33:12.687Z,99.99
2023-08-12T02:34:12.662Z,99.99
2023-08-12T02:35:12.670Z,99.99
2023-08-12T02:36:12.672Z,99.99
2023-08-12T02:37:12.892Z,99.99
2023-08-12T02:38:12.614Z,99.99
2023-08-12T02:39:12.635Z,99.99
2023-08-12T02:40:12.595Z,99.99
2023-08-12T02:41:12.607Z,99.99
2023-08-12T02:42:12.629Z,99.99
2023-08-12T02:43:12.583Z,99.99
2023-08-12T02:44:12.552Z,99.99
2023-08-12T02:45:12.569Z,99.99
2023-08-12T02:46:12.561Z,99.99
2023-08-12T02:47:12.820Z,99.99
2023-08-12T02:48:12.845Z,99.99
2023-08-12T02:49:12.518Z,99.99
2023-08-12T02:50:12.487Z,99.99
2023-08-12T02:51:12.508Z,99.99
2023-08-12T02:52:12.475Z,99.99
2023-08-12T02:53:12.484Z,99.99
2023-08-12T02:54:12.499Z,99.99
2023-08-12T02:55:12.486Z,99.99
2023-08-12T02:56:12.419Z,99.99
2023-08-12T02:57:12.607Z,99.99
2023-08-12T02:58:12.456Z,99.99
2023-08-12T02:59:12.418Z,99.99
2023-08-12T03:00:12.421Z,99.99
2023-08-12T03:01:12.410Z,99.99
2023-08-12T03:02:12.367Z,99.99
2023-08-12T03:03:12.410Z,99.99
2023-08-12T03:04:12.364Z,99.99
2023-08-12T03:05:12.334Z,99.99
2023-08-12T03:06:12.386Z,99.99
2023-08-12T03:07:12.498Z,99.99
2023-08-12T03:08:12.325Z,99.99
2023-08-12T03:09:12.468Z,99.99
2023-08-12T03:10:12.305Z,99.99
2023-08-12T03:11:12.266Z,99.99
2023-08-12T03:12:12.366Z,99.99
2023-08-12T03:13:12.275Z,99.99
2023-08-12T03:14:12.234Z,99.99
2023-08-12T03:15:12.262Z,99.99
2023-08-12T03:16:12.232Z,99.99
2023-08-12T03:17:12.485Z,99.99
2023-08-12T03:18:12.255Z,99.99
2023-08-12T03:19:12.201Z,99.99
2023-08-12T03:20:12.167Z,99.99
2023-08-12T03:21:12.193Z,99.99
2023-08-12T03:22:12.149Z,99.99
2023-08-12T03:23:12.158Z,99.99
2023-08-12T03:24:12.177Z,99.99
2023-08-12T03:25:12.146Z,99.99
2023-08-12T03:26:12.117Z,99.99
2023-08-12T03:27:12.346Z,99.99
2023-08-12T03:28:12.085Z,99.99
2023-08-12T03:29:12.098Z,99.99
2023-08-12T03:30:12.096Z,99.99
2023-08-12T03:31:12.089Z,99.99
2023-08-12T03:32:12.039Z,99.99
2023-08-12T03:33:12.084Z,99.99
2023-08-12T03:34:12.020Z,99.99
2023-08-12T03:35:12.039Z,99.99
2023-08-12T03:36:12.038Z,99.99
2023-08-12T03:37:12.338Z,99.99
2023-08-12T03:38:11.980Z,99.99
2023-08-12T03:39:12.008Z,99.99
2023-08-12T03:40:11.961Z,99.99
2023-08-12T03:41:11.971Z,99.99
2023-08-12T03:42:11.994Z,99.99
2023-08-12T03:43:11.948Z,99.99
2023-08-12T03:44:11.936Z,99.99
2023-08-12T03:45:11.949Z,99.99
2023-08-12T03:46:11.909Z,99.99
2023-08-12T03:47:12.234Z,99.99
2023-08-12T03:48:11.896Z,99.99
2023-08-12T03:49:11.916Z,99.99
2023-08-12T03:50:11.855Z,99.99
2023-08-12T03:51:11.872Z,99.99
2023-08-12T03:52:11.831Z,99.99
2023-08-12T03:53:11.844Z,99.99
2023-08-12T03:54:11.853Z,99.99
2023-08-12T03:55:11.830Z,99.99
2023-08-12T03:56:11.787Z,99.99
2023-08-12T03:57:12.052Z,99.99
2023-08-12T03:58:11.796Z,99.99
2023-08-12T03:59:11.778Z,99.99
2023-08-12T04:00:11.781Z,99.99
2023-08-12T04:01:11.791Z,99.99
2023-08-12T04:02:11.730Z,99.99
2023-08-12T04:03:11.817Z,99.99
2023-08-12T04:04:14.246Z,99.99
2023-08-12T04:05:11.712Z,99.99
2023-08-12T04:06:12.015Z,99.99
2023-08-12T04:07:11.973Z,99.99
2023-08-12T04:08:11.663Z,99.99
2023-08-12T04:09:11.685Z,99.99
2023-08-12T04:10:11.646Z,99.99
2023-08-12T04:11:11.646Z,99.99
2023-08-12T04:12:11.784Z,99.99
2023-08-12T04:13:11.632Z,99.99
2023-08-12T04:14:11.602Z,99.99
2023-08-12T04:15:11.611Z,99.99
2023-08-12T04:16:11.582Z,99.99
2023-08-12T04:17:11.995Z,99.99
2023-08-12T04:18:11.606Z,99.99
2023-08-12T04:19:11.578Z,99.99
2023-08-12T04:20:11.532Z,99.99
2023-08-12T04:21:11.546Z,99.99
2023-08-12T04:22:11.547Z,99.99
2023-08-12T04:23:11.522Z,99.99
2023-08-12T04:24:11.542Z,99.99
2023-08-12T04:25:11.541Z,99.99
2023-08-12T04:26:11.469Z,99.99
2023-08-12T04:27:11.991Z,99.99
2023-08-12T04:28:11.458Z,99.99
2023-08-12T04:29:11.474Z,99.99
2023-08-12T04:30:11.787Z,99.99
2023-08-12T04:31:11.539Z,99.99
2023-08-12T04:32:11.429Z,99.99
2023-08-12T04:33:11.437Z,99.99
2023-08-12T04:34:11.434Z,99.99
2023-08-12T04:35:11.485Z,99.99
2023-08-12T04:36:11.476Z,99.99
2023-08-12T04:37:11.664Z,99.99
2023-08-12T04:38:11.482Z,99.99
2023-08-12T04:39:11.382Z,99.99
2023-08-12T04:40:11.322Z,99.99
2023-08-12T04:41:11.405Z,99.99
2023-08-12T04:42:11.321Z,99.99
2023-08-12T04:43:11.322Z,99.99
2023-08-12T04:44:11.294Z,99.99
2023-08-12T04:45:11.299Z,99.99
2023-08-12T04:46:11.265Z,99.99
2023-08-12T04:47:11.751Z,99.99
2023-08-12T04:48:11.318Z,99.99
2023-08-12T04:49:11.258Z,99.99
2023-08-12T04:50:11.215Z,99.99
2023-08-12T04:51:11.254Z,99.99
2023-08-12T04:52:11.198Z,99.99
2023-08-12T04:53:11.204Z,99.99
2023-08-12T04:54:11.222Z,99.99
2023-08-12T04:55:11.192Z,99.99
2023-08-12T04:56:11.149Z,99.99
2023-08-12T04:57:11.463Z,99.99
2023-08-12T04:58:11.133Z,99.99
2023-08-12T04:59:11.141Z,99.99
2023-08-12T05:00:11.144Z,99.99
2023-08-12T05:01:11.126Z,99.99
2023-08-12T05:02:11.110Z,99.99
2023-08-12T05:03:11.153Z,99.99
2023-08-12T05:04:11.074Z,99.99
2023-08-12T05:05:11.140Z,99.99
2023-08-12T05:06:11.098Z,99.99
2023-08-12T05:07:11.073Z,99.99
2023-08-12T05:08:11.022Z,99.99
2023-08-12T05:09:11.042Z,99.99
2023-08-12T05:10:11.006Z,99.99
2023-08-12T05:11:11.126Z,99.99
2023-08-12T05:12:11.303Z,99.99
2023-08-12T05:13:10.999Z,99.99
2023-08-12T05:14:10.960Z,99.99
2023-08-12T05:15:10.989Z,99.99
2023-08-12T05:16:10.951Z,99.99
2023-08-12T05:17:10.952Z,99.99
2023-08-12T05:18:10.958Z,99.99
2023-08-12T05:19:10.932Z,99.99
2023-08-12T05:20:10.899Z,99.99
2023-08-12T05:21:10.908Z,99.99
2023-08-12T05:22:11.121Z,99.99
2023-08-12T05:23:10.886Z,99.99
2023-08-12T05:24:10.872Z,99.99
2023-08-12T05:25:10.899Z,99.99
2023-08-12T05:26:10.832Z,99.99
2023-08-12T05:27:10.846Z,99.99
2023-08-12T05:28:10.831Z,99.99
2023-08-12T05:29:10.822Z,99.99
2023-08-12T05:30:10.841Z,99.99
2023-08-12T05:31:10.812Z,99.99
2023-08-12T05:32:11.137Z,99.99
2023-08-12T05:33:10.882Z,99.99
2023-08-12T05:34:10.770Z,99.99
2023-08-12T05:35:10.762Z,99.99
2023-08-12T05:36:10.760Z,99.99
2023-08-12T05:37:10.756Z,99.99
2023-08-12T05:38:10.712Z,99.99
2023-08-12T05:39:10.727Z,99.99
2023-08-12T05:40:10.700Z,99.99
2023-08-12T05:41:10.698Z,99.99
2023-08-12T05:42:10.918Z,99.99
2023-08-12T05:43:10.694Z,99.99
2023-08-12T05:44:10.652Z,99.99
2023-08-12T05:45:10.655Z,99.99
2023-08-12T05:46:10.668Z,99.99
2023-08-12T05:47:10.641Z,99.99
2023-08-12T05:48:10.702Z,99.99
2023-08-12T05:49:10.633Z,99.99
2023-08-12T05:50:10.582Z,99.99
2023-08-12T05:51:10.617Z,99.99
2023-08-12T05:52:11.079Z,99.99
2023-08-12T05:53:10.573Z,99.99
2023-08-12T05:54:10.582Z,99.99
2023-08-12T05:55:10.585Z,99.99
2023-08-12T05:56:10.524Z,99.99
2023-08-12T05:57:10.539Z,99.99
2023-08-12T05:58:10.510Z,99.99
2023-08-12T05:59:10.510Z,99.99
2023-08-12T06:00:10.510Z,99.99
2023-08-12T06:01:10.577Z,99.99
2023-08-12T06:02:10.931Z,99.99
2023-08-12T06:03:10.507Z,99.99
2023-08-12T06:04:10.509Z,99.99
2023-08-12T06:05:10.448Z,99.99
2023-08-12T06:06:10.447Z,99.99
2023-08-12T06:07:10.447Z,99.99
2023-08-12T06:08:10.390Z,99.99
2023-08-12T06:09:10.407Z,99.99
2023-08-12T06:10:10.407Z,99.99
2023-08-12T06:11:10.388Z,99.99
2023-08-12T06:12:10.770Z,99.99
2023-08-12T06:13:10.361Z,99.99
2023-08-12T06:14:10.330Z,99.99
2023-08-12T06:15:10.353Z,99.99
2023-08-12T06:16:10.406Z,99.99
2023-08-12T06:17:10.328Z,99.99
2023-08-12T06:18:10.386Z,99.99
2023-08-12T06:19:10.306Z,99.99
2023-08-12T06:20:10.260Z,99.99
2023-08-12T06:21:10.275Z,99.99
2023-08-12T06:22:10.593Z,99.99
2023-08-12T06:23:10.251Z,99.99
2023-08-12T06:24:10.252Z,99.99
2023-08-12T06:25:10.247Z,99.99
2023-08-12T06:26:10.238Z,99.99
2023-08-12T06:27:10.259Z,99.99
2023-08-12T06:28:10.180Z,99.99
2023-08-12T06:29:10.189Z,99.99
2023-08-12T06:30:10.195Z,99.99
2023-08-12T06:31:10.233Z,99.99
2023-08-12T06:32:10.498Z,99.99
2023-08-12T06:33:10.147Z,99.99
2023-08-12T06:34:10.116Z,99.99
2023-08-12T06:35:10.159Z,99.99
2023-08-12T06:36:10.162Z,99.99
2023-08-12T06:37:10.117Z,99.99
2023-08-12T06:38:10.077Z,99.99
2023-08-12T06:39:10.089Z,99.99
2023-08-12T06:40:10.055Z,99.99
2023-08-12T06:41:10.064Z,99.99
2023-08-12T06:42:10.326Z,99.99
2023-08-12T06:43:10.049Z,99.99
2023-08-12T06:44:10.014Z,99.99
2023-08-12T06:45:10.042Z,99.99
2023-08-12T06:46:10.023Z,99.99
2023-08-12T06:47:10.004Z,99.99
2023-08-12T06:48:10.169Z,99.99
2023-08-12T06:49:09.978Z,99.99
2023-08-12T06:50:09.946Z,99.99
2023-08-12T06:51:09.961Z,99.99
2023-08-12T06:52:10.259Z,99.99
2023-08-12T06:53:09.948Z,99.99
2023-08-12T06:54:10.132Z,99.99
2023-08-12T06:55:09.916Z,99.99
2023-08-12T06:56:09.886Z,99.99
2023-08-12T06:57:09.894Z,99.99
2023-08-12T06:58:09.862Z,99.99
2023-08-12T06:59:09.874Z,99.99
2023-08-12T07:00:10.168Z,99.99
2023-08-12T07:01:10.451Z,99.99
2023-08-12T07:02:10.120Z,99.99
2023-08-12T07:03:09.896Z,99.99
2023-08-12T07:04:09.804Z,99.99
2023-08-12T07:05:09.819Z,99.99
2023-08-12T07:06:10.297Z,99.99
2023-08-12T07:07:09.819Z,99.99
2023-08-12T07:08:09.757Z,99.99
2023-08-12T07:09:09.787Z,99.99
2023-08-12T07:10:09.736Z,99.99
2023-08-12T07:11:09.750Z,99.99
2023-08-12T07:12:10.580Z,99.99
2023-08-12T07:13:09.736Z,99.99
2023-08-12T07:14:09.702Z,99.99
2023-08-12T07:15:09.728Z,99.99
2023-08-12T07:16:09.763Z,99.99
2023-08-12T07:17:09.682Z,99.99
2023-08-12T07:18:10.185Z,99.99
2023-08-12T07:19:09.641Z,99.99
2023-08-12T07:20:09.658Z,99.99
2023-08-12T07:21:09.646Z,99.99
2023-08-12T07:22:10.002Z,99.99
2023-08-12T07:23:09.602Z,99.99
2023-08-12T07:24:09.634Z,99.99
2023-08-12T07:25:09.593Z,99.99
2023-08-12T07:26:09.594Z,99.99
2023-08-12T07:27:09.572Z,99.99
2023-08-12T07:28:09.572Z,99.99
2023-08-12T07:29:09.547Z,99.99
2023-08-12T07:30:09.593Z,99.99
2023-08-12T07:31:09.531Z,99.99
2023-08-12T07:32:09.679Z,99.99
2023-08-12T07:33:09.532Z,99.99
2023-08-12T07:34:09.511Z,99.99
2023-08-12T07:35:09.506Z,99.99
2023-08-12T07:36:09.536Z,99.99
2023-08-12T07:37:09.456Z,99.99
2023-08-12T07:38:09.459Z,99.99
2023-08-12T07:39:09.429Z,99.99
2023-08-12T07:40:09.443Z,99.99
2023-08-12T07:41:09.414Z,99.99
2023-08-12T07:42:09.593Z,99.99
2023-08-12T07:43:09.395Z,99.99
2023-08-12T07:44:09.427Z,99.99
2023-08-12T07:45:09.369Z,99.99
2023-08-12T07:46:10.486Z,99.99
2023-08-12T07:47:09.342Z,99.99
2023-08-12T07:48:09.415Z,99.99
2023-08-12T07:49:09.344Z,99.99
2023-08-12T07:50:09.355Z,99.99
2023-08-12T07:51:09.305Z,99.99
2023-08-12T07:52:09.558Z,99.99
2023-08-12T07:53:09.290Z,99.99
2023-08-12T07:54:09.317Z,99.99
2023-08-12T07:55:09.257Z,99.99
2023-08-12T07:56:09.274Z,99.99
2023-08-12T07:57:09.236Z,99.99
2023-08-12T07:58:09.249Z,99.99
2023-08-12T07:59:09.214Z,99.99
2023-08-12T08:00:09.329Z,99.99
2023-08-12T08:01:09.200Z,99.99
2023-08-12T08:02:09.278Z,99.99
2023-08-12T08:03:09.263Z,99.99
2023-08-12T08:04:09.202Z,99.99
2023-08-12T08:05:09.210Z,99.99
2023-08-12T08:06:09.188Z,99.99
2023-08-12T08:07:09.144Z,99.99
2023-08-12T08:08:09.162Z,99.99
2023-08-12T08:09:09.115Z,99.99
2023-08-12T08:10:09.128Z,99.99
2023-08-12T08:11:09.092Z,99.99
2023-08-12T08:12:09.238Z,99.99
2023-08-12T08:13:09.085Z,99.99
2023-08-12T08:14:09.090Z,99.99
2023-08-12T08:15:09.046Z,99.99
2023-08-12T08:16:09.126Z,99.99
2023-08-12T08:17:09.142Z,99.99
2023-08-12T08:18:09.232Z,99.99
2023-08-12T08:19:10.233Z,99.99
2023-08-12T08:20:09.019Z,99.99
2023-08-12T08:21:08.980Z,99.99
2023-08-12T08:22:08.993Z,99.99
2023-08-12T08:23:08.966Z,99.99
2023-08-12T08:24:08.993Z,99.99
2023-08-12T08:25:08.941Z,99.99
2023-08-12T08:26:08.955Z,99.99
2023-08-12T08:27:08.917Z,99.99
2023-08-12T08:28:08.925Z,99.99
2023-08-12T08:29:08.899Z,99.99
2023-08-12T08:30:08.911Z,99.99
2023-08-12T08:31:08.924Z,99.99
2023-08-12T08:32:08.863Z,99.99
2023-08-12T08:33:08.898Z,99.99
2023-08-12T08:34:08.875Z,99.99
2023-08-12T08:35:08.895Z,99.99
2023-08-12T08:36:08.896Z,99.99
2023-08-12T08:37:08.809Z,99.99
2023-08-12T08:38:08.828Z,99.99
2023-08-12T08:39:08.937Z,99.99
2023-08-12T08:40:08.815Z,99.99
2023-08-12T08:41:08.769Z,99.99
2023-08-12T08:42:08.811Z,99.99
2023-08-12T08:43:08.761Z,99.99
2023-08-12T08:44:08.765Z,99.99
2023-08-12T08:45:08.724Z,99.99
2023-08-12T08:46:08.764Z,99.99
2023-08-12T08:47:08.704Z,99.99
2023-08-12T08:48:08.786Z,99.99
2023-08-12T08:49:08.687Z,99.99
2023-08-12T08:50:08.702Z,99.99
2023-08-12T08:51:08.665Z,99.99
2023-08-12T08:52:08.670Z,99.99
2023-08-12T08:53:08.652Z,99.99
2023-08-12T08:54:08.693Z,99.99
2023-08-12T08:55:08.794Z,99.99
2023-08-12T08:56:14.745Z,99.99
2023-08-12T08:57:14.922Z,99.99
2023-08-12T08:58:08.626Z,99.99
2023-08-12T08:59:08.582Z,99.99
2023-08-12T09:00:16.495Z,99.99
2023-08-12T09:01:08.557Z,99.99
2023-08-12T09:02:08.580Z,99.99
2023-08-12T09:03:08.593Z,99.99
2023-08-12T09:04:08.568Z,99.99
2023-08-12T09:05:08.542Z,99.99
2023-08-12T09:06:08.551Z,99.99
2023-08-12T09:07:08.494Z,99.99
2023-08-12T09:08:08.513Z,99.99
2023-08-12T09:09:08.471Z,99.99
2023-08-12T09:10:08.485Z,99.99
2023-08-12T09:11:08.453Z,99.99
2023-08-12T09:12:08.499Z,99.99
2023-08-12T09:13:08.495Z,99.99
2023-08-12T09:14:08.439Z,99.99
2023-08-12T09:15:08.412Z,99.99
2023-08-12T09:16:08.481Z,99.99
2023-08-12T09:17:08.388Z,99.99
2023-08-12T09:18:08.440Z,99.99
2023-08-12T09:19:08.366Z,99.99
2023-08-12T09:20:08.391Z,99.99
2023-08-12T09:21:08.358Z,99.99
2023-08-12T09:22:08.366Z,99.99
2023-08-12T09:23:08.325Z,99.99
2023-08-12T09:24:08.454Z,99.99
2023-08-12T09:25:08.299Z,99.99
2023-08-12T09:26:08.316Z,99.99
2023-08-12T09:27:08.278Z,99.99
2023-08-12T09:28:08.290Z,99.99
2023-08-12T09:29:08.256Z,99.99
2023-08-12T09:30:08.307Z,99.99
2023-08-12T09:31:08.235Z,99.99
2023-08-12T09:32:08.313Z,99.99
2023-08-12T09:33:08.423Z,99.99
2023-08-12T09:34:08.234Z,99.99
2023-08-12T09:35:08.197Z,99.99
2023-08-12T09:36:08.242Z,99.99
2023-08-12T09:37:08.173Z,99.99
2023-08-12T09:38:08.195Z,99.99
2023-08-12T09:39:08.153Z,99.99
2023-08-12T09:40:08.181Z,99.99
2023-08-12T09:41:08.134Z,99.99
2023-08-12T09:42:08.192Z,99.99
2023-08-12T09:43:08.118Z,99.99
2023-08-12T09:44:08.134Z,99.99
2023-08-12T09:45:08.100Z,99.99
2023-08-12T09:46:08.134Z,99.99
2023-08-12T09:47:08.067Z,99.99
2023-08-12T09:48:08.111Z,99.99
2023-08-12T09:49:08.047Z,99.99
2023-08-12T09:50:08.062Z,99.99
2023-08-12T09:51:08.021Z,97.94
2023-08-12T09:52:08.072Z,99.99
2023-08-12T09:53:08.024Z,99.79
2023-08-12T09:54:08.042Z,99.29
2023-08-12T09:55:07.981Z,99.99
2023-08-12T09:56:07.997Z,99.99
2023-08-12T09:57:07.972Z,99.99
2023-08-12T09:58:07.976Z,99.99
2023-08-12T09:59:07.941Z,99.99
2023-08-12T10:00:07.973Z,99.90
2023-08-12T10:01:07.938Z,99.99
2023-08-12T10:02:07.931Z,99.99
2023-08-12T10:03:07.926Z,98.99
2023-08-12T10:04:07.917Z,99.99
2023-08-12T10:05:07.877Z,99.99
2023-08-12T10:06:07.923Z,99.99
2023-08-12T10:07:07.853Z,99.99
2023-08-12T10:08:07.867Z,99.99
2023-08-12T10:09:07.833Z,99.99
2023-08-12T10:10:07.887Z,99.99
2023-08-12T10:11:13.334Z,99.99
2023-08-12T10:12:07.917Z,99.99
2023-08-12T10:13:07.791Z,99.99
2023-08-12T10:14:07.802Z,99.99
2023-08-12T10:15:07.796Z,99.99
2023-08-12T10:16:07.818Z,99.99
2023-08-12T10:17:07.750Z,99.99
2023-08-12T10:18:11.461Z,98.95
2023-08-12T10:19:07.726Z,97.50
2023-08-12T10:20:07.736Z,98.70
2023-08-12T10:21:07.717Z,93.12
2023-08-12T10:22:07.719Z,99.99
2023-08-12T10:23:07.683Z,99.99
2023-08-12T10:24:07.717Z,96.31
2023-08-12T10:25:07.665Z,97.20
2023-08-12T10:26:07.726Z,96.01
2023-08-12T10:27:07.641Z,94.31
2023-08-12T10:28:07.666Z,97.71
2023-08-12T10:29:07.624Z,93.51
2023-08-12T10:30:07.648Z,93.96
2023-08-12T10:31:07.665Z,99.75
2023-08-12T10:32:07.613Z,96.41
2023-08-12T10:33:07.575Z,93.52
2023-08-12T10:34:07.587Z,97.01
2023-08-12T10:35:07.553Z,97.16
2023-08-12T10:36:07.605Z,91.98
2023-08-12T10:37:07.541Z,89.89
2023-08-12T10:38:07.569Z,95.97
2023-08-12T10:39:07.517Z,93.58
2023-08-12T10:40:07.526Z,92.58
2023-08-12T10:41:07.489Z,90.78
2023-08-12T10:42:07.530Z,95.47
2023-08-12T10:43:07.612Z,92.88
2023-08-12T10:44:07.485Z,92.48
2023-08-12T10:45:07.451Z,89.69
2023-08-12T10:46:07.463Z,89.39
2023-08-12T10:47:07.478Z,87.80
2023-08-12T10:48:07.482Z,91.88
2023-08-12T10:49:07.431Z,88.10
2023-08-12T10:50:07.421Z,90.34
2023-08-12T10:51:07.381Z,90.64
2023-08-12T10:52:07.402Z,92.44
2023-08-12T10:53:07.361Z,86.86
2023-08-12T10:54:07.420Z,90.14
2023-08-12T10:55:07.340Z,85.46
2023-08-12T10:56:07.355Z,88.25
2023-08-12T10:57:07.321Z,84.81
2023-08-12T10:58:07.371Z,83.81
2023-08-12T10:59:07.298Z,87.20
2023-08-12T11:00:07.346Z,85.30
2023-08-12T11:01:07.313Z,85.96
2023-08-12T11:02:07.319Z,87.46
2023-08-12T11:03:07.277Z,87.35
2023-08-12T11:04:07.322Z,87.95
2023-08-12T11:05:07.250Z,84.56
2023-08-12T11:06:07.275Z,84.37
2023-08-12T11:07:07.215Z,84.67
2023-08-12T11:08:07.542Z,86.30
2023-08-12T11:09:07.194Z,86.50
2023-08-12T11:10:07.232Z,87.10
2023-08-12T11:11:07.173Z,85.66
2023-08-12T11:12:07.210Z,84.17
2023-08-12T11:13:07.157Z,86.96
2023-08-12T11:14:07.168Z,90.44
2023-08-12T11:15:07.140Z,84.03
2023-08-12T11:16:07.158Z,86.68
2023-08-12T11:17:07.107Z,83.39
2023-08-12T11:18:07.226Z,84.55
2023-08-12T11:19:07.091Z,84.99
2023-08-12T11:20:07.526Z,85.78
2023-08-12T11:21:07.089Z,83.89
2023-08-12T11:22:07.078Z,83.33
2023-08-12T11:23:07.052Z,83.13
2023-08-12T11:24:07.106Z,84.63
2023-08-12T11:25:07.027Z,84.56
2023-08-12T11:26:07.045Z,83.97
2023-08-12T11:27:07.261Z,82.57
2023-08-12T11:28:07.036Z,83.67
2023-08-12T11:29:06.982Z,84.86
2023-08-12T11:30:07.026Z,84.17
2023-08-12T11:31:07.043Z,84.37
2023-08-12T11:32:06.975Z,83.07
2023-08-12T11:33:07.023Z,83.87
2023-08-12T11:34:06.950Z,84.53
2023-08-12T11:35:06.992Z,83.03
2023-08-12T11:36:06.984Z,82.43
2023-08-12T11:37:07.010Z,81.64
2023-08-12T11:38:06.916Z,80.44
2023-08-12T11:39:06.904Z,83.59
2023-08-12T11:40:06.874Z,80.41
2023-08-12T11:41:06.896Z,83.49
2023-08-12T11:42:06.874Z,85.08
2023-08-12T11:43:07.361Z,81.60
2023-08-12T11:44:06.822Z,81.44
2023-08-12T11:45:06.845Z,85.22
2023-08-12T11:46:06.888Z,84.13
2023-08-12T11:47:06.812Z,81.34
2023-08-12T11:48:06.826Z,83.00
2023-08-12T11:49:06.938Z,84.58
2023-08-12T11:50:06.758Z,82.56
2023-08-12T11:51:06.794Z,81.92
2023-08-12T11:52:06.741Z,84.11
2023-08-12T11:53:06.746Z,83.51
2023-08-12T11:54:06.750Z,79.77
2023-08-12T11:55:06.759Z,79.37
2023-08-12T11:56:06.714Z,79.91
2023-08-12T11:57:06.706Z,80.90
2023-08-12T11:58:06.669Z,83.09
2023-08-12T11:59:06.685Z,81.44
2023-08-12T12:00:06.680Z,80.84
2023-08-12T12:01:06.681Z,82.34
2023-08-12T12:02:06.633Z,82.64
2023-08-12T12:03:06.726Z,82.34
2023-08-12T12:04:06.685Z,82.24
2023-08-12T12:05:06.630Z,83.27
2023-08-12T12:06:06.607Z,82.48
2023-08-12T12:07:06.606Z,81.77
2023-08-12T12:08:06.614Z,83.57
2023-08-12T12:09:06.666Z,82.28
2023-08-12T12:10:06.568Z,82.07
2023-08-12T12:11:06.560Z,82.48
2023-08-12T12:12:06.572Z,83.07
2023-08-12T12:13:06.558Z,82.78
2023-08-12T12:14:06.509Z,82.48
2023-08-12T12:15:06.528Z,82.37
2023-08-12T12:16:06.556Z,84.47
2023-08-12T12:17:06.494Z,82.87
2023-08-12T12:18:07.715Z,84.61
2023-08-12T12:19:06.721Z,85.80
2023-08-12T12:20:06.434Z,86.30
2023-08-12T12:21:06.452Z,87.40
2023-08-12T12:22:06.467Z,88.29
2023-08-12T12:23:06.437Z,84.45
2023-08-12T12:24:06.418Z,84.84
2023-08-12T12:25:06.436Z,84.45
2023-08-12T12:26:06.442Z,84.45
2023-08-12T12:27:06.389Z,84.25
2023-08-12T12:28:06.354Z,86.20
2023-08-12T12:29:06.378Z,88.04
2023-08-12T12:30:06.369Z,94.21
2023-08-12T12:31:06.400Z,99.99
2023-08-12T12:32:06.310Z,99.99
2023-08-12T12:33:06.328Z,99.99
2023-08-12T12:34:06.291Z,99.99
2023-08-12T12:35:06.305Z,99.99
2023-08-12T12:36:06.304Z,99.99
2023-08-12T12:37:06.301Z,99.99
2023-08-12T12:38:06.251Z,99.99
2023-08-12T12:39:06.268Z,99.99
2023-08-12T12:40:06.235Z,99.99
2023-08-12T12:41:06.238Z,99.99
2023-08-12T12:42:06.256Z,99.99
2023-08-12T12:43:06.213Z,99.99
2023-08-12T12:44:06.187Z,99.99
2023-08-12T12:45:06.402Z,99.99
2023-08-12T12:46:06.259Z,99.99
2023-08-12T12:47:06.199Z,99.99
2023-08-12T12:48:06.231Z,99.99
2023-08-12T12:49:06.156Z,99.99
2023-08-12T12:50:06.122Z,99.99
2023-08-12T12:51:06.130Z,99.99
2023-08-12T12:52:06.098Z,99.99